sensor_id;sensor_type;location;lat;lon;timestamp;P1;durP1;ratioP1;P2;durP2;ratioP2
45206;SDS011;30950;53.086;21.576;2023-04-08T00:01:35;15.93;;;10.43;;
45206;SDS011;30950;53.086;21.576;2023-04-08T00:04:02;13.55;;;9.13;;
45206;SDS011;30950;53.086;21.576;2023-04-08T00:06:30;14.85;;;10.23;;
45206;SDS011;30950;53.086;21.576;2023-04-08T00:08:57;14.60;;;10.93;;
45206;SDS011;30950;53.086;21.576;2023-04-08T00:11:24;14.55;;;10.55;;
45206;SDS011;30950;53.086;21.576;2023-04-08T00:13:52;16.33;;;10.57;;
45206;SDS011;30950;53.086;21.576;2023-04-08T00:16:19;15.30;;;10.07;;
45206;SDS011;30950;53.086;21.576;2023-04-08T00:18:47;13.70;;;10.32;;
45206;SDS011;30950;53.086;21.576;2023-04-08T00:21:15;15.45;;;11.27;;
45206;SDS011;30950;53.086;21.576;2023-04-08T00:23:43;16.50;;;11.23;;
45206;SDS011;30950;53.086;21.576;2023-04-08T00:26:10;14.48;;;10.88;;
45206;SDS011;30950;53.086;21.576;2023-04-08T00:28:39;15.65;;;11.38;;
45206;SDS011;30950;53.086;21.576;2023-04-08T00:31:08;17.85;;;11.75;;
45206;SDS011;30950;53.086;21.576;2023-04-08T00:33:36;15.00;;;11.05;;
45206;SDS011;30950;53.086;21.576;2023-04-08T00:36:03;15.30;;;10.85;;
45206;SDS011;30950;53.086;21.576;2023-04-08T00:38:31;16.08;;;11.18;;
45206;SDS011;30950;53.086;21.576;2023-04-08T00:40:58;16.05;;;10.82;;
45206;SDS011;30950;53.086;21.576;2023-04-08T00:43:25;14.93;;;11.00;;
45206;SDS011;30950;53.086;21.576;2023-04-08T00:45:53;15.95;;;11.68;;
45206;SDS011;30950;53.086;21.576;2023-04-08T00:48:20;15.70;;;10.32;;
45206;SDS011;30950;53.086;21.576;2023-04-08T00:50:47;15.05;;;9.77;;
45206;SDS011;30950;53.086;21.576;2023-04-08T00:53:18;19.08;;;11.15;;
45206;SDS011;30950;53.086;21.576;2023-04-08T00:55:45;15.35;;;10.57;;
45206;SDS011;30950;53.086;21.576;2023-04-08T00:58:13;17.88;;;11.73;;
45206;SDS011;30950;53.086;21.576;2023-04-08T01:00:41;18.65;;;11.35;;
45206;SDS011;30950;53.086;21.576;2023-04-08T01:06:31;15.65;;;10.60;;
45206;SDS011;30950;53.086;21.576;2023-04-08T01:09:09;13.85;;;9.95;;
45206;SDS011;30950;53.086;21.576;2023-04-08T01:11:37;15.32;;;11.60;;
45206;SDS011;30950;53.086;21.576;2023-04-08T01:14:10;16.20;;;10.85;;
45206;SDS011;30950;53.086;21.576;2023-04-08T01:16:40;14.63;;;10.73;;
45206;SDS011;30950;53.086;21.576;2023-04-08T01:19:09;14.27;;;10.57;;
45206;SDS011;30950;53.086;21.576;2023-04-08T01:21:49;14.43;;;10.30;;
45206;SDS011;30950;53.086;21.576;2023-04-08T01:24:27;14.85;;;10.63;;
45206;SDS011;30950;53.086;21.576;2023-04-08T01:26:57;14.57;;;9.98;;
45206;SDS011;30950;53.086;21.576;2023-04-08T01:29:27;15.32;;;10.30;;
45206;SDS011;30950;53.086;21.576;2023-04-08T01:31:56;15.50;;;10.73;;
45206;SDS011;30950;53.086;21.576;2023-04-08T01:34:26;16.73;;;11.90;;
45206;SDS011;30950;53.086;21.576;2023-04-08T01:36:55;14.68;;;10.65;;
45206;SDS011;30950;53.086;21.576;2023-04-08T01:39:24;13.00;;;10.00;;
45206;SDS011;30950;53.086;21.576;2023-04-08T01:41:52;14.57;;;10.93;;
45206;SDS011;30950;53.086;21.576;2023-04-08T01:44:23;15.77;;;11.65;;
45206;SDS011;30950;53.086;21.576;2023-04-08T01:46:52;17.27;;;11.30;;
45206;SDS011;30950;53.086;21.576;2023-04-08T01:49:22;16.25;;;11.38;;
45206;SDS011;30950;53.086;21.576;2023-04-08T01:51:50;14.85;;;11.25;;
45206;SDS011;30950;53.086;21.576;2023-04-08T01:54:19;17.17;;;12.20;;
45206;SDS011;30950;53.086;21.576;2023-04-08T01:56:46;18.00;;;12.10;;
45206;SDS011;30950;53.086;21.576;2023-04-08T01:59:15;17.48;;;10.95;;
45206;SDS011;30950;53.086;21.576;2023-04-08T02:01:44;15.82;;;11.45;;
45206;SDS011;30950;53.086;21.576;2023-04-08T02:04:13;15.23;;;11.68;;
45206;SDS011;30950;53.086;21.576;2023-04-08T02:06:43;15.98;;;11.00;;
45206;SDS011;30950;53.086;21.576;2023-04-08T02:09:12;16.20;;;10.98;;
45206;SDS011;30950;53.086;21.576;2023-04-08T02:11:39;15.95;;;11.60;;
45206;SDS011;30950;53.086;21.576;2023-04-08T02:14:07;16.65;;;11.85;;
45206;SDS011;30950;53.086;21.576;2023-04-08T02:16:38;16.27;;;11.27;;
45206;SDS011;30950;53.086;21.576;2023-04-08T02:19:10;17.23;;;11.65;;
45206;SDS011;30950;53.086;21.576;2023-04-08T02:21:47;16.27;;;11.80;;
45206;SDS011;30950;53.086;21.576;2023-04-08T02:24:21;16.17;;;11.55;;
45206;SDS011;30950;53.086;21.576;2023-04-08T02:26:48;16.75;;;11.68;;
45206;SDS011;30950;53.086;21.576;2023-04-08T02:29:18;17.70;;;11.23;;
45206;SDS011;30950;53.086;21.576;2023-04-08T02:31:45;15.40;;;11.35;;
45206;SDS011;30950;53.086;21.576;2023-04-08T02:34:14;16.10;;;11.77;;
45206;SDS011;30950;53.086;21.576;2023-04-08T02:36:43;15.20;;;11.57;;
45206;SDS011;30950;53.086;21.576;2023-04-08T02:39:13;17.45;;;11.85;;
45206;SDS011;30950;53.086;21.576;2023-04-08T02:41:40;17.90;;;12.10;;
45206;SDS011;30950;53.086;21.576;2023-04-08T02:44:08;16.83;;;11.38;;
45206;SDS011;30950;53.086;21.576;2023-04-08T02:46:39;15.73;;;11.50;;
45206;SDS011;30950;53.086;21.576;2023-04-08T02:49:06;16.60;;;11.80;;
45206;SDS011;30950;53.086;21.576;2023-04-08T02:51:33;17.27;;;11.98;;
45206;SDS011;30950;53.086;21.576;2023-04-08T02:54:01;17.05;;;11.32;;
45206;SDS011;30950;53.086;21.576;2023-04-08T02:56:28;17.20;;;12.13;;
45206;SDS011;30950;53.086;21.576;2023-04-08T02:58:55;16.63;;;12.10;;
45206;SDS011;30950;53.086;21.576;2023-04-08T03:01:22;19.27;;;12.80;;
45206;SDS011;30950;53.086;21.576;2023-04-08T03:03:50;17.42;;;12.00;;
45206;SDS011;30950;53.086;21.576;2023-04-08T03:06:17;20.17;;;13.32;;
45206;SDS011;30950;53.086;21.576;2023-04-08T03:08:45;21.17;;;12.40;;
45206;SDS011;30950;53.086;21.576;2023-04-08T03:11:12;18.40;;;12.73;;
45206;SDS011;30950;53.086;21.576;2023-04-08T03:13:39;16.83;;;11.57;;
45206;SDS011;30950;53.086;21.576;2023-04-08T03:16:06;18.80;;;12.25;;
45206;SDS011;30950;53.086;21.576;2023-04-08T03:18:34;18.60;;;12.38;;
45206;SDS011;30950;53.086;21.576;2023-04-08T03:21:01;17.60;;;11.90;;
45206;SDS011;30950;53.086;21.576;2023-04-08T03:23:29;19.75;;;12.38;;
45206;SDS011;30950;53.086;21.576;2023-04-08T03:25:56;19.10;;;12.75;;
45206;SDS011;30950;53.086;21.576;2023-04-08T03:28:23;19.33;;;13.43;;
45206;SDS011;30950;53.086;21.576;2023-04-08T03:30:50;19.85;;;12.30;;
45206;SDS011;30950;53.086;21.576;2023-04-08T03:33:18;18.75;;;13.55;;
45206;SDS011;30950;53.086;21.576;2023-04-08T03:35:46;18.63;;;12.27;;
45206;SDS011;30950;53.086;21.576;2023-04-08T03:38:13;18.48;;;12.73;;
45206;SDS011;30950;53.086;21.576;2023-04-08T03:40:41;16.92;;;12.60;;
45206;SDS011;30950;53.086;21.576;2023-04-08T03:43:08;20.67;;;13.95;;
45206;SDS011;30950;53.086;21.576;2023-04-08T03:45:37;21.58;;;13.40;;
45206;SDS011;30950;53.086;21.576;2023-04-08T03:48:04;22.05;;;12.55;;
45206;SDS011;30950;53.086;21.576;2023-04-08T03:50:32;19.35;;;14.13;;
45206;SDS011;30950;53.086;21.576;2023-04-08T03:52:59;23.30;;;14.05;;
45206;SDS011;30950;53.086;21.576;2023-04-08T03:55:26;21.90;;;12.68;;
45206;SDS011;30950;53.086;21.576;2023-04-08T03:57:54;19.45;;;12.52;;
45206;SDS011;30950;53.086;21.576;2023-04-08T04:00:21;22.15;;;13.75;;
45206;SDS011;30950;53.086;21.576;2023-04-08T04:02:48;20.33;;;12.80;;
45206;SDS011;30950;53.086;21.576;2023-04-08T04:05:16;21.40;;;13.23;;
45206;SDS011;30950;53.086;21.576;2023-04-08T04:07:43;20.13;;;12.43;;
45206;SDS011;30950;53.086;21.576;2023-04-08T04:10:10;22.70;;;13.40;;
45206;SDS011;30950;53.086;21.576;2023-04-08T04:12:38;20.40;;;12.93;;
45206;SDS011;30950;53.086;21.576;2023-04-08T04:15:05;20.17;;;13.90;;
45206;SDS011;30950;53.086;21.576;2023-04-08T04:17:33;21.30;;;13.63;;
45206;SDS011;30950;53.086;21.576;2023-04-08T04:20:02;21.70;;;13.25;;
45206;SDS011;30950;53.086;21.576;2023-04-08T04:22:31;19.58;;;13.13;;
45206;SDS011;30950;53.086;21.576;2023-04-08T04:24:58;22.85;;;13.90;;
45206;SDS011;30950;53.086;21.576;2023-04-08T04:27:25;20.08;;;14.32;;
45206;SDS011;30950;53.086;21.576;2023-04-08T04:29:52;25.90;;;14.90;;
45206;SDS011;30950;53.086;21.576;2023-04-08T04:32:20;21.90;;;14.18;;
45206;SDS011;30950;53.086;21.576;2023-04-08T04:34:47;20.85;;;13.65;;
45206;SDS011;30950;53.086;21.576;2023-04-08T04:37:14;22.85;;;15.77;;
45206;SDS011;30950;53.086;21.576;2023-04-08T04:39:41;24.52;;;15.43;;
45206;SDS011;30950;53.086;21.576;2023-04-08T04:42:09;26.58;;;16.38;;
45206;SDS011;30950;53.086;21.576;2023-04-08T04:44:36;22.98;;;15.25;;
45206;SDS011;30950;53.086;21.576;2023-04-08T04:47:03;22.92;;;15.15;;
45206;SDS011;30950;53.086;21.576;2023-04-08T04:49:31;24.48;;;17.15;;
45206;SDS011;30950;53.086;21.576;2023-04-08T04:51:58;25.63;;;17.25;;
45206;SDS011;30950;53.086;21.576;2023-04-08T04:54:25;25.52;;;16.60;;
45206;SDS011;30950;53.086;21.576;2023-04-08T04:56:52;25.17;;;16.35;;
45206;SDS011;30950;53.086;21.576;2023-04-08T04:59:20;26.98;;;18.00;;
45206;SDS011;30950;53.086;21.576;2023-04-08T05:01:47;26.80;;;17.60;;
45206;SDS011;30950;53.086;21.576;2023-04-08T05:04:14;24.77;;;16.08;;
45206;SDS011;30950;53.086;21.576;2023-04-08T05:06:42;23.30;;;17.05;;
45206;SDS011;30950;53.086;21.576;2023-04-08T05:09:09;25.40;;;16.20;;
45206;SDS011;30950;53.086;21.576;2023-04-08T05:11:36;26.20;;;16.02;;
45206;SDS011;30950;53.086;21.576;2023-04-08T05:14:03;25.92;;;15.30;;
45206;SDS011;30950;53.086;21.576;2023-04-08T05:16:32;25.08;;;16.90;;
45206;SDS011;30950;53.086;21.576;2023-04-08T05:18:59;22.15;;;16.02;;
45206;SDS011;30950;53.086;21.576;2023-04-08T05:21:27;21.63;;;15.50;;
45206;SDS011;30950;53.086;21.576;2023-04-08T05:23:54;21.58;;;15.50;;
45206;SDS011;30950;53.086;21.576;2023-04-08T05:26:21;22.58;;;15.25;;
45206;SDS011;30950;53.086;21.576;2023-04-08T05:28:49;25.98;;;15.07;;
45206;SDS011;30950;53.086;21.576;2023-04-08T05:31:18;22.77;;;16.55;;
45206;SDS011;30950;53.086;21.576;2023-04-08T05:33:46;20.95;;;15.32;;
45206;SDS011;30950;53.086;21.576;2023-04-08T05:36:13;25.85;;;18.20;;
45206;SDS011;30950;53.086;21.576;2023-04-08T05:38:40;22.65;;;16.52;;
45206;SDS011;30950;53.086;21.576;2023-04-08T05:41:11;28.05;;;17.13;;
45206;SDS011;30950;53.086;21.576;2023-04-08T05:43:38;26.33;;;17.88;;
45206;SDS011;30950;53.086;21.576;2023-04-08T05:46:06;26.00;;;17.20;;
45206;SDS011;30950;53.086;21.576;2023-04-08T05:48:34;24.55;;;17.10;;
45206;SDS011;30950;53.086;21.576;2023-04-08T05:51:02;30.73;;;17.23;;
45206;SDS011;30950;53.086;21.576;2023-04-08T05:53:29;24.48;;;16.42;;
45206;SDS011;30950;53.086;21.576;2023-04-08T05:55:57;28.25;;;19.27;;
45206;SDS011;30950;53.086;21.576;2023-04-08T05:58:24;25.67;;;17.88;;
45206;SDS011;30950;53.086;21.576;2023-04-08T06:00:51;27.80;;;18.80;;
45206;SDS011;30950;53.086;21.576;2023-04-08T06:03:21;30.30;;;18.60;;
45206;SDS011;30950;53.086;21.576;2023-04-08T06:05:48;29.10;;;19.00;;
45206;SDS011;30950;53.086;21.576;2023-04-08T06:08:15;25.55;;;17.77;;
45206;SDS011;30950;53.086;21.576;2023-04-08T06:10:50;36.80;;;22.05;;
45206;SDS011;30950;53.086;21.576;2023-04-08T06:13:17;27.42;;;17.55;;
45206;SDS011;30950;53.086;21.576;2023-04-08T06:15:46;26.00;;;17.10;;
45206;SDS011;30950;53.086;21.576;2023-04-08T06:18:17;20.90;;;15.40;;
45206;SDS011;30950;53.086;21.576;2023-04-08T06:20:44;21.42;;;14.95;;
45206;SDS011;30950;53.086;21.576;2023-04-08T06:23:12;19.13;;;14.63;;
45206;SDS011;30950;53.086;21.576;2023-04-08T06:25:40;21.25;;;14.95;;
45206;SDS011;30950;53.086;21.576;2023-04-08T06:28:07;17.50;;;13.23;;
45206;SDS011;30950;53.086;21.576;2023-04-08T06:30:35;21.48;;;16.02;;
45206;SDS011;30950;53.086;21.576;2023-04-08T06:33:02;21.92;;;16.15;;
45206;SDS011;30950;53.086;21.576;2023-04-08T06:35:29;18.50;;;13.48;;
45206;SDS011;30950;53.086;21.576;2023-04-08T06:37:58;21.48;;;14.25;;
45206;SDS011;30950;53.086;21.576;2023-04-08T06:40:25;17.77;;;13.13;;
45206;SDS011;30950;53.086;21.576;2023-04-08T06:42:52;18.45;;;13.98;;
45206;SDS011;30950;53.086;21.576;2023-04-08T06:45:31;17.70;;;13.30;;
45206;SDS011;30950;53.086;21.576;2023-04-08T06:47:58;16.38;;;13.52;;
45206;SDS011;30950;53.086;21.576;2023-04-08T06:50:26;17.63;;;12.65;;
45206;SDS011;30950;53.086;21.576;2023-04-08T06:52:53;17.08;;;13.25;;
45206;SDS011;30950;53.086;21.576;2023-04-08T06:55:21;15.82;;;13.05;;
45206;SDS011;30950;53.086;21.576;2023-04-08T06:57:48;17.20;;;13.27;;
45206;SDS011;30950;53.086;21.576;2023-04-08T07:00:15;18.25;;;12.93;;
45206;SDS011;30950;53.086;21.576;2023-04-08T07:02:43;16.67;;;12.77;;
45206;SDS011;30950;53.086;21.576;2023-04-08T07:05:10;20.77;;;14.15;;
45206;SDS011;30950;53.086;21.576;2023-04-08T07:07:37;18.92;;;13.35;;
45206;SDS011;30950;53.086;21.576;2023-04-08T07:10:05;19.70;;;13.88;;
45206;SDS011;30950;53.086;21.576;2023-04-08T07:12:36;18.08;;;12.68;;
45206;SDS011;30950;53.086;21.576;2023-04-08T07:15:03;18.60;;;13.63;;
45206;SDS011;30950;53.086;21.576;2023-04-08T07:17:31;17.15;;;13.27;;
45206;SDS011;30950;53.086;21.576;2023-04-08T07:20:00;19.88;;;13.90;;
45206;SDS011;30950;53.086;21.576;2023-04-08T07:22:27;18.20;;;14.13;;
45206;SDS011;30950;53.086;21.576;2023-04-08T07:24:54;15.15;;;12.20;;
45206;SDS011;30950;53.086;21.576;2023-04-08T07:27:21;15.32;;;11.98;;
45206;SDS011;30950;53.086;21.576;2023-04-08T07:29:52;16.75;;;13.02;;
45206;SDS011;30950;53.086;21.576;2023-04-08T07:32:20;14.38;;;11.23;;
45206;SDS011;30950;53.086;21.576;2023-04-08T07:34:47;14.45;;;11.05;;
45206;SDS011;30950;53.086;21.576;2023-04-08T07:37:14;13.52;;;11.60;;
45206;SDS011;30950;53.086;21.576;2023-04-08T07:39:43;15.57;;;10.85;;
45206;SDS011;30950;53.086;21.576;2023-04-08T07:42:10;19.65;;;12.18;;
45206;SDS011;30950;53.086;21.576;2023-04-08T07:44:38;15.02;;;12.25;;
45206;SDS011;30950;53.086;21.576;2023-04-08T07:47:05;15.88;;;12.02;;
45206;SDS011;30950;53.086;21.576;2023-04-08T07:49:33;15.05;;;11.52;;
45206;SDS011;30950;53.086;21.576;2023-04-08T07:52:00;19.23;;;12.38;;
45206;SDS011;30950;53.086;21.576;2023-04-08T07:54:29;14.05;;;11.13;;
45206;SDS011;30950;53.086;21.576;2023-04-08T07:56:57;14.32;;;11.20;;
45206;SDS011;30950;53.086;21.576;2023-04-08T07:59:25;15.63;;;12.68;;
45206;SDS011;30950;53.086;21.576;2023-04-08T08:01:53;17.70;;;13.13;;
45206;SDS011;30950;53.086;21.576;2023-04-08T08:04:20;13.85;;;11.65;;
45206;SDS011;30950;53.086;21.576;2023-04-08T08:06:51;17.92;;;14.07;;
45206;SDS011;30950;53.086;21.576;2023-04-08T08:09:18;16.20;;;12.52;;
45206;SDS011;30950;53.086;21.576;2023-04-08T08:11:46;17.42;;;12.88;;
45206;SDS011;30950;53.086;21.576;2023-04-08T08:14:13;15.85;;;12.75;;
45206;SDS011;30950;53.086;21.576;2023-04-08T08:16:41;16.35;;;12.07;;
45206;SDS011;30950;53.086;21.576;2023-04-08T08:19:10;14.18;;;12.30;;
45206;SDS011;30950;53.086;21.576;2023-04-08T08:21:39;13.48;;;11.20;;
45206;SDS011;30950;53.086;21.576;2023-04-08T08:24:07;16.17;;;13.18;;
45206;SDS011;30950;53.086;21.576;2023-04-08T08:26:34;13.85;;;11.98;;
45206;SDS011;30950;53.086;21.576;2023-04-08T08:29:05;14.50;;;11.48;;
45206;SDS011;30950;53.086;21.576;2023-04-08T08:31:34;18.85;;;12.25;;
45206;SDS011;30950;53.086;21.576;2023-04-08T08:34:02;13.43;;;11.35;;
45206;SDS011;30950;53.086;21.576;2023-04-08T08:36:29;14.18;;;12.23;;
45206;SDS011;30950;53.086;21.576;2023-04-08T08:38:59;13.70;;;11.65;;
45206;SDS011;30950;53.086;21.576;2023-04-08T08:41:31;13.48;;;11.95;;
45206;SDS011;30950;53.086;21.576;2023-04-08T08:44:01;13.90;;;11.63;;
45206;SDS011;30950;53.086;21.576;2023-04-08T08:46:30;13.70;;;11.15;;
45206;SDS011;30950;53.086;21.576;2023-04-08T08:48:58;15.63;;;12.35;;
45206;SDS011;30950;53.086;21.576;2023-04-08T08:51:25;13.15;;;10.75;;
45206;SDS011;30950;53.086;21.576;2023-04-08T08:53:54;14.07;;;11.77;;
45206;SDS011;30950;53.086;21.576;2023-04-08T08:56:21;13.65;;;11.88;;
45206;SDS011;30950;53.086;21.576;2023-04-08T08:58:48;13.23;;;10.63;;
45206;SDS011;30950;53.086;21.576;2023-04-08T09:01:28;15.35;;;12.27;;
45206;SDS011;30950;53.086;21.576;2023-04-08T09:06:35;13.00;;;10.60;;
45206;SDS011;30950;53.086;21.576;2023-04-08T09:09:03;13.38;;;11.57;;
45206;SDS011;30950;53.086;21.576;2023-04-08T09:11:37;14.35;;;11.70;;
45206;SDS011;30950;53.086;21.576;2023-04-08T09:14:22;15.52;;;12.00;;
45206;SDS011;30950;53.086;21.576;2023-04-08T09:16:50;13.65;;;11.70;;
45206;SDS011;30950;53.086;21.576;2023-04-08T09:19:18;14.52;;;11.43;;
45206;SDS011;30950;53.086;21.576;2023-04-08T09:21:51;15.43;;;12.27;;
45206;SDS011;30950;53.086;21.576;2023-04-08T09:24:34;12.95;;;11.30;;
45206;SDS011;30950;53.086;21.576;2023-04-08T09:27:03;12.95;;;11.55;;
45206;SDS011;30950;53.086;21.576;2023-04-08T09:29:30;14.20;;;11.10;;
45206;SDS011;30950;53.086;21.576;2023-04-08T09:32:02;14.23;;;12.73;;
45206;SDS011;30950;53.086;21.576;2023-04-08T09:34:30;14.75;;;12.65;;
45206;SDS011;30950;53.086;21.576;2023-04-08T09:36:59;13.68;;;11.02;;
45206;SDS011;30950;53.086;21.576;2023-04-08T09:39:27;14.77;;;11.60;;
45206;SDS011;30950;53.086;21.576;2023-04-08T09:41:56;17.42;;;12.40;;
45206;SDS011;30950;53.086;21.576;2023-04-08T09:44:27;14.23;;;11.85;;
45206;SDS011;30950;53.086;21.576;2023-04-08T09:47:41;13.57;;;11.32;;
45206;SDS011;30950;53.086;21.576;2023-04-08T09:49:54;13.32;;;11.30;;
45206;SDS011;30950;53.086;21.576;2023-04-08T09:52:29;16.00;;;12.90;;
45206;SDS011;30950;53.086;21.576;2023-04-08T09:55:09;18.42;;;12.88;;
45206;SDS011;30950;53.086;21.576;2023-04-08T10:00:11;12.57;;;10.43;;
45206;SDS011;30950;53.086;21.576;2023-04-08T10:05:30;18.95;;;16.08;;
45206;SDS011;30950;53.086;21.576;2023-04-08T10:07:58;17.90;;;15.48;;
45206;SDS011;30950;53.086;21.576;2023-04-08T10:10:26;20.13;;;15.93;;
45206;SDS011;30950;53.086;21.576;2023-04-08T10:12:53;18.33;;;15.80;;
45206;SDS011;30950;53.086;21.576;2023-04-08T10:15:25;19.05;;;15.52;;
45206;SDS011;30950;53.086;21.576;2023-04-08T10:23:01;14.25;;;12.18;;
45206;SDS011;30950;53.086;21.576;2023-04-08T10:25:33;14.55;;;12.70;;
45206;SDS011;30950;53.086;21.576;2023-04-08T10:30:46;13.95;;;11.95;;
45206;SDS011;30950;53.086;21.576;2023-04-08T10:33:22;13.15;;;11.63;;
45206;SDS011;30950;53.086;21.576;2023-04-08T10:36:00;13.55;;;11.52;;
45206;SDS011;30950;53.086;21.576;2023-04-08T10:38:38;15.23;;;11.48;;
45206;SDS011;30950;53.086;21.576;2023-04-08T10:41:11;12.77;;;11.05;;
45206;SDS011;30950;53.086;21.576;2023-04-08T10:43:47;13.75;;;11.07;;
45206;SDS011;30950;53.086;21.576;2023-04-08T10:46:17;13.40;;;11.10;;
45206;SDS011;30950;53.086;21.576;2023-04-08T10:48:44;15.85;;;11.88;;
45206;SDS011;30950;53.086;21.576;2023-04-08T10:51:30;16.05;;;11.48;;
45206;SDS011;30950;53.086;21.576;2023-04-08T10:54:10;15.63;;;11.23;;
45206;SDS011;30950;53.086;21.576;2023-04-08T10:56:51;12.32;;;11.02;;
45206;SDS011;30950;53.086;21.576;2023-04-08T10:59:29;12.07;;;10.25;;
45206;SDS011;30950;53.086;21.576;2023-04-08T11:02:00;12.82;;;11.10;;
45206;SDS011;30950;53.086;21.576;2023-04-08T11:04:28;11.85;;;10.30;;
45206;SDS011;30950;53.086;21.576;2023-04-08T11:06:56;13.55;;;11.57;;
45206;SDS011;30950;53.086;21.576;2023-04-08T11:09:24;12.90;;;11.13;;
45206;SDS011;30950;53.086;21.576;2023-04-08T11:11:51;13.52;;;11.35;;
45206;SDS011;30950;53.086;21.576;2023-04-08T11:14:19;13.77;;;11.57;;
45206;SDS011;30950;53.086;21.576;2023-04-08T11:16:48;14.98;;;12.07;;
45206;SDS011;30950;53.086;21.576;2023-04-08T11:19:15;15.55;;;11.95;;
45206;SDS011;30950;53.086;21.576;2023-04-08T11:21:44;14.45;;;12.10;;
45206;SDS011;30950;53.086;21.576;2023-04-08T11:24:12;14.98;;;11.57;;
45206;SDS011;30950;53.086;21.576;2023-04-08T11:26:40;15.70;;;11.75;;
45206;SDS011;30950;53.086;21.576;2023-04-08T11:29:09;11.02;;;9.52;;
45206;SDS011;30950;53.086;21.576;2023-04-08T11:31:41;13.35;;;10.77;;
45206;SDS011;30950;53.086;21.576;2023-04-08T11:34:09;13.73;;;10.82;;
45206;SDS011;30950;53.086;21.576;2023-04-08T11:36:39;13.27;;;11.45;;
45206;SDS011;30950;53.086;21.576;2023-04-08T11:39:32;13.73;;;11.75;;
45206;SDS011;30950;53.086;21.576;2023-04-08T11:42:00;12.50;;;10.10;;
45206;SDS011;30950;53.086;21.576;2023-04-08T11:44:30;11.32;;;8.90;;
45206;SDS011;30950;53.086;21.576;2023-04-08T11:46:58;12.00;;;8.75;;
45206;SDS011;30950;53.086;21.576;2023-04-08T11:49:28;11.05;;;8.63;;
45206;SDS011;30950;53.086;21.576;2023-04-08T11:52:10;9.63;;;8.27;;
45206;SDS011;30950;53.086;21.576;2023-04-08T11:54:40;11.05;;;9.18;;
45206;SDS011;30950;53.086;21.576;2023-04-08T11:57:08;10.07;;;8.48;;
45206;SDS011;30950;53.086;21.576;2023-04-08T11:59:36;12.10;;;10.23;;
45206;SDS011;30950;53.086;21.576;2023-04-08T12:02:03;14.15;;;12.15;;
45206;SDS011;30950;53.086;21.576;2023-04-08T12:04:31;11.20;;;9.38;;
45206;SDS011;30950;53.086;21.576;2023-04-08T12:07:00;10.48;;;8.82;;
45206;SDS011;30950;53.086;21.576;2023-04-08T12:09:27;10.75;;;9.07;;
45206;SDS011;30950;53.086;21.576;2023-04-08T12:11:54;11.30;;;9.50;;
45206;SDS011;30950;53.086;21.576;2023-04-08T12:14:23;10.88;;;9.10;;
45206;SDS011;30950;53.086;21.576;2023-04-08T12:16:54;9.93;;;7.97;;
45206;SDS011;30950;53.086;21.576;2023-04-08T12:19:21;9.50;;;7.70;;
45206;SDS011;30950;53.086;21.576;2023-04-08T12:21:48;9.68;;;7.97;;
45206;SDS011;30950;53.086;21.576;2023-04-08T12:24:15;10.23;;;7.15;;
45206;SDS011;30950;53.086;21.576;2023-04-08T12:26:43;9.38;;;7.28;;
45206;SDS011;30950;53.086;21.576;2023-04-08T12:29:10;10.88;;;7.70;;
45206;SDS011;30950;53.086;21.576;2023-04-08T12:31:37;7.55;;;6.07;;
45206;SDS011;30950;53.086;21.576;2023-04-08T12:34:04;8.70;;;7.50;;
45206;SDS011;30950;53.086;21.576;2023-04-08T12:36:32;9.32;;;6.55;;
45206;SDS011;30950;53.086;21.576;2023-04-08T12:38:59;8.35;;;7.03;;
45206;SDS011;30950;53.086;21.576;2023-04-08T12:41:27;9.05;;;7.68;;
45206;SDS011;30950;53.086;21.576;2023-04-08T12:43:54;9.77;;;7.25;;
45206;SDS011;30950;53.086;21.576;2023-04-08T12:46:22;8.13;;;6.32;;
45206;SDS011;30950;53.086;21.576;2023-04-08T12:48:49;8.25;;;6.70;;
45206;SDS011;30950;53.086;21.576;2023-04-08T12:51:29;8.90;;;7.00;;
45206;SDS011;30950;53.086;21.576;2023-04-08T12:53:57;7.30;;;6.43;;
45206;SDS011;30950;53.086;21.576;2023-04-08T12:56:26;7.47;;;6.65;;
45206;SDS011;30950;53.086;21.576;2023-04-08T12:58:54;8.02;;;7.03;;
45206;SDS011;30950;53.086;21.576;2023-04-08T13:01:24;7.65;;;5.90;;
45206;SDS011;30950;53.086;21.576;2023-04-08T13:03:51;7.40;;;5.97;;
45206;SDS011;30950;53.086;21.576;2023-04-08T13:06:21;7.60;;;5.38;;
45206;SDS011;30950;53.086;21.576;2023-04-08T13:08:48;7.55;;;6.38;;
45206;SDS011;30950;53.086;21.576;2023-04-08T13:11:16;6.60;;;5.32;;
45206;SDS011;30950;53.086;21.576;2023-04-08T13:13:43;5.82;;;4.97;;
45206;SDS011;30950;53.086;21.576;2023-04-08T13:16:13;6.18;;;4.68;;
45206;SDS011;30950;53.086;21.576;2023-04-08T13:18:40;6.28;;;5.40;;
45206;SDS011;30950;53.086;21.576;2023-04-08T13:21:13;5.38;;;4.50;;
45206;SDS011;30950;53.086;21.576;2023-04-08T13:23:41;5.95;;;5.07;;
45206;SDS011;30950;53.086;21.576;2023-04-08T13:26:08;6.75;;;5.72;;
45206;SDS011;30950;53.086;21.576;2023-04-08T13:28:35;6.60;;;5.30;;
45206;SDS011;30950;53.086;21.576;2023-04-08T13:31:22;6.90;;;5.68;;
45206;SDS011;30950;53.086;21.576;2023-04-08T13:33:49;5.22;;;4.53;;
45206;SDS011;30950;53.086;21.576;2023-04-08T13:36:16;4.88;;;4.20;;
45206;SDS011;30950;53.086;21.576;2023-04-08T13:38:44;5.32;;;4.35;;
45206;SDS011;30950;53.086;21.576;2023-04-08T13:41:11;6.38;;;4.80;;
45206;SDS011;30950;53.086;21.576;2023-04-08T13:43:39;5.43;;;4.47;;
45206;SDS011;30950;53.086;21.576;2023-04-08T13:46:07;5.40;;;4.50;;
45206;SDS011;30950;53.086;21.576;2023-04-08T13:48:40;5.07;;;4.13;;
45206;SDS011;30950;53.086;21.576;2023-04-08T13:51:08;6.68;;;5.07;;
45206;SDS011;30950;53.086;21.576;2023-04-08T13:53:35;7.22;;;5.40;;
45206;SDS011;30950;53.086;21.576;2023-04-08T13:56:03;6.35;;;4.90;;
45206;SDS011;30950;53.086;21.576;2023-04-08T13:58:54;5.57;;;4.60;;
45206;SDS011;30950;53.086;21.576;2023-04-08T14:01:23;5.45;;;4.07;;
45206;SDS011;30950;53.086;21.576;2023-04-08T14:03:51;5.75;;;4.47;;
45206;SDS011;30950;53.086;21.576;2023-04-08T14:06:18;5.57;;;4.60;;
45206;SDS011;30950;53.086;21.576;2023-04-08T14:08:45;6.57;;;4.50;;
45206;SDS011;30950;53.086;21.576;2023-04-08T14:11:13;4.97;;;4.07;;
45206;SDS011;30950;53.086;21.576;2023-04-08T14:13:40;5.45;;;4.68;;
45206;SDS011;30950;53.086;21.576;2023-04-08T14:16:07;6.53;;;4.72;;
45206;SDS011;30950;53.086;21.576;2023-04-08T14:18:34;5.25;;;4.55;;
45206;SDS011;30950;53.086;21.576;2023-04-08T14:21:02;8.35;;;6.35;;
45206;SDS011;30950;53.086;21.576;2023-04-08T14:23:30;5.80;;;4.65;;
45206;SDS011;30950;53.086;21.576;2023-04-08T14:25:58;6.18;;;4.53;;
45206;SDS011;30950;53.086;21.576;2023-04-08T14:28:27;7.18;;;5.45;;
45206;SDS011;30950;53.086;21.576;2023-04-08T14:30:54;5.45;;;4.80;;
45206;SDS011;30950;53.086;21.576;2023-04-08T14:33:21;6.30;;;4.78;;
45206;SDS011;30950;53.086;21.576;2023-04-08T14:35:51;7.60;;;6.38;;
45206;SDS011;30950;53.086;21.576;2023-04-08T14:38:18;7.88;;;5.40;;
45206;SDS011;30950;53.086;21.576;2023-04-08T14:40:47;6.28;;;5.15;;
45206;SDS011;30950;53.086;21.576;2023-04-08T14:43:14;6.40;;;5.15;;